Millersburg, Missouri
Current Conditions -  °F | °C
As of 3:35 AM on Thursday 18 Dec 2014 (Local Time) from KCOU Reporting Station
Light Snow Light Snow  
Wind Chill: 22°   Ceiling: 4100
Heat Index: 29°   Visibility: 2.5mi
Dew Point: 27°   Wind: 7mph
Humidity: 92%   Direction: 50°NE
Pressure: 30.24"   Gusts: NA
Location:  38.8555°N, 91.9568°W
Report Text: KCOU 180935Z AUTO 05006KT 2 1/2SM -SN BR OVC041 M02/M03 A3024 RMK AO2 P0001 T10171028
Loading
Personal Weather Stations






























Interactive Weather Map New forecast layout! Learn more

10-Day Weather Forecast

Advertisements
Track Severe Weather on mobile